Time;durP1;ratioP1;P1;durP2;ratioP2;P2;SDS_P1;SDS_P2;PMS_P1;PMS_P2;Temp;Humidity;BMP_temperature;BMP_pressure;BME280_temperature;BME280_humidity;BME280_pressure;Samples;Min_cycle;Max_cycle;Signal;HPM_P1;HPM_P2
2023/08/04 00:00:11;;;;;;;7.93;4.60;;;15.70;99.90;;;;;;5083132;28;20426;-67
2023/08/04 00:02:37;;;;;;;6.17;4.77;;;15.80;99.90;;;;;;5085030;28;20914;-67
2023/08/04 00:05:04;;;;;;;8.57;4.70;;;15.80;99.90;;;;;;5083544;28;20433;-67
2023/08/04 00:07:30;;;;;;;10.37;4.27;;;15.70;99.90;;;;;;5084572;28;20457;-66
2023/08/04 00:09:55;;;;;;;6.83;4.77;;;15.70;99.90;;;;;;5084134;28;20545;-67
2023/08/04 00:12:22;;;;;;;8.80;4.73;;;15.70;99.90;;;;;;5084198;28;20185;-67
2023/08/04 00:14:48;;;;;;;9.87;3.97;;;15.70;99.90;;;;;;5084098;28;20234;-67
2023/08/04 00:17:14;;;;;;;7.10;5.23;;;15.70;99.90;;;;;;5083474;28;20971;-67
2023/08/04 00:19:40;;;;;;;6.60;4.90;;;15.70;99.90;;;;;;5084138;28;20426;-67
2023/08/04 00:22:06;;;;;;;6.50;4.13;;;15.70;99.90;;;;;;5083196;28;21204;-67
2023/08/04 00:24:32;;;;;;;9.37;4.20;;;15.70;99.90;;;;;;5083951;28;20568;-66
2023/08/04 00:26:57;;;;;;;5.60;4.30;;;15.70;99.90;;;;;;5066839;28;20538;-67
2023/08/04 00:29:23;;;;;;;4.83;3.80;;;15.70;99.90;;;;;;5063933;28;20173;-67
2023/08/04 00:31:48;;;;;;;9.80;4.97;;;15.70;99.90;;;;;;5063916;28;20180;-67
2023/08/04 00:34:14;;;;;;;4.27;3.77;;;15.60;99.90;;;;;;5063252;28;20185;-66
2023/08/04 00:36:40;;;;;;;13.07;4.40;;;15.60;99.90;;;;;;5063817;28;20736;-66
2023/08/04 00:39:05;;;;;;;6.47;4.20;;;15.60;99.90;;;;;;5063363;28;20713;-67
2023/08/04 00:41:31;;;;;;;5.10;3.70;;;15.60;99.90;;;;;;5046203;28;20192;-67
2023/08/04 00:43:57;;;;;;;9.13;3.83;;;15.60;99.90;;;;;;5063280;28;20184;-67
2023/08/04 00:46:23;;;;;;;3.97;3.53;;;15.60;99.90;;;;;;5063765;28;20288;-66
2023/08/04 00:48:49;;;;;;;3.60;3.30;;;15.60;99.90;;;;;;5063661;28;20192;-66
2023/08/04 00:51:15;;;;;;;6.10;4.00;;;15.70;99.90;;;;;;5063062;28;20481;-66
2023/08/04 00:53:41;;;;;;;6.87;3.77;;;15.70;99.90;;;;;;5063621;28;20264;-66
2023/08/04 00:56:07;;;;;;;7.77;4.23;;;15.70;99.90;;;;;;5081087;28;20429;-66
2023/08/04 00:58:33;;;;;;;4.83;4.00;;;15.70;99.90;;;;;;5083727;28;21139;-67
2023/08/04 01:01:02;;;;;;;5.70;3.90;;;15.60;99.90;;;;;;5083149;28;20624;-66
2023/08/04 01:03:28;;;;;;;5.83;3.80;;;15.60;99.90;;;;;;5083038;28;20410;-67
2023/08/04 01:06:31;;;;;;;8.60;3.40;;;15.60;99.90;;;;;;5082954;28;20472;-67
2023/08/04 01:09:28;;;;;;;6.30;3.33;;;15.60;99.90;;;;;;5083272;28;20738;-66
2023/08/04 01:12:24;;;;;;;4.97;3.30;;;15.60;99.90;;;;;;5083193;28;20471;-66
2023/08/04 01:14:53;;;;;;;6.73;3.50;;;15.70;99.90;;;;;;5083253;28;21176;-67
2023/08/04 01:17:26;;;;;;;6.20;3.97;;;15.70;99.90;;;;;;5083455;28;20462;-66
2023/08/04 01:19:52;;;;;;;6.63;3.30;;;15.70;99.90;;;;;;5083131;28;20570;-66
2023/08/04 01:22:19;;;;;;;7.50;4.50;;;15.70;99.90;;;;;;5083221;28;21144;-66
2023/08/04 01:24:45;;;;;;;7.70;4.03;;;15.70;99.90;;;;;;5083339;28;20458;-67
2023/08/04 01:27:15;;;;;;;4.73;3.90;;;15.70;99.90;;;;;;5082753;28;20782;-67
2023/08/04 01:29:45;;;;;;;4.30;3.63;;;15.60;99.90;;;;;;5083509;28;20164;-66
2023/08/04 01:32:11;;;;;;;6.37;4.07;;;15.60;99.90;;;;;;5070570;28;20434;-67
2023/08/04 01:34:41;;;;;;;4.33;3.60;;;15.60;99.90;;;;;;5062979;28;20450;-67
2023/08/04 01:37:08;;;;;;;4.40;4.10;;;15.50;99.90;;;;;;5062474;28;20467;-66
2023/08/04 01:39:34;;;;;;;7.13;4.27;;;15.60;99.90;;;;;;5063232;28;20419;-66
2023/08/04 01:41:59;;;;;;;6.10;4.60;;;15.50;99.90;;;;;;5062462;28;20422;-67
2023/08/04 01:44:25;;;;;;;6.60;5.77;;;15.60;99.90;;;;;;5062837;28;20773;-67
2023/08/04 01:46:50;;;;;;;9.03;8.00;;;15.50;99.90;;;;;;5062559;28;20238;-66
2023/08/04 01:49:16;;;;;;;6.50;5.77;;;15.50;99.90;;;;;;5062875;28;20207;-66
2023/08/04 01:51:42;;;;;;;7.47;6.03;;;15.40;99.90;;;;;;5063245;28;20619;-66
2023/08/04 01:54:07;;;;;;;13.30;8.00;;;15.40;99.90;;;;;;5047030;28;20617;-67
2023/08/04 01:56:33;;;;;;;8.50;6.60;;;15.40;99.90;;;;;;5083662;28;20861;-67
2023/08/04 01:58:59;;;;;;;7.37;6.63;;;15.40;99.90;;;;;;5083250;28;20236;-67
2023/08/04 02:01:24;;;;;;;10.57;8.50;;;15.40;99.90;;;;;;5083838;28;20260;-66
2023/08/04 02:03:50;;;;;;;10.60;7.57;;;15.40;99.90;;;;;;5083259;28;20180;-67
2023/08/04 02:06:16;;;;;;;9.50;7.57;;;15.40;99.90;;;;;;5082880;28;20195;-67
2023/08/04 02:08:41;;;;;;;8.10;7.30;;;15.40;99.90;;;;;;5083233;28;20191;-67
2023/08/04 02:11:07;;;;;;;9.43;8.43;;;15.40;99.90;;;;;;5064478;28;20187;-67
2023/08/04 02:13:33;;;;;;;9.60;8.17;;;15.40;99.90;;;;;;5084200;28;20181;-66
2023/08/04 02:15:59;;;;;;;10.30;7.37;;;15.40;99.90;;;;;;5067971;28;20456;-66
2023/08/04 02:18:24;;;;;;;8.27;7.40;;;15.40;99.90;;;;;;5087129;28;20204;-66
2023/08/04 02:20:50;;;;;;;12.60;7.53;;;15.40;99.90;;;;;;5086191;28;20208;-66
2023/08/04 02:23:16;;;;;;;10.13;7.33;;;15.40;99.90;;;;;;5086655;28;20176;-67
2023/08/04 02:25:41;;;;;;;8.73;7.20;;;15.40;99.90;;;;;;5086553;28;20176;-66
2023/08/04 02:28:07;;;;;;;8.50;7.23;;;15.50;99.90;;;;;;5068007;28;20181;-66
2023/08/04 02:30:33;;;;;;;10.20;6.97;;;15.50;99.90;;;;;;5086729;28;20334;-67
2023/08/04 02:32:59;;;;;;;8.13;6.57;;;15.50;99.90;;;;;;5067075;28;20420;-66
2023/08/04 02:35:24;;;;;;;8.23;7.40;;;15.50;99.90;;;;;;5066191;28;20177;-66
2023/08/04 02:37:50;;;;;;;9.77;6.57;;;15.40;99.90;;;;;;5065837;28;20273;-66
2023/08/04 02:40:16;;;;;;;9.00;6.90;;;15.40;99.90;;;;;;5067227;28;20271;-67
2023/08/04 02:42:41;;;;;;;9.63;6.73;;;15.40;99.90;;;;;;5066265;28;20184;-66
2023/08/04 02:45:08;;;;;;;8.00;7.20;;;15.40;99.90;;;;;;5065740;28;20205;-66
2023/08/04 02:47:36;;;;;;;8.03;6.53;;;15.40;99.90;;;;;;5066477;28;20193;-67
2023/08/04 02:50:04;;;;;;;8.67;7.33;;;15.40;99.90;;;;;;5065487;28;20426;-67
2023/08/04 02:52:29;;;;;;;9.73;7.23;;;15.30;99.90;;;;;;5066336;28;20431;-67
2023/08/04 02:54:55;;;;;;;8.23;6.30;;;15.30;99.90;;;;;;5074143;28;20415;-67
2023/08/04 02:57:21;;;;;;;10.53;6.20;;;15.30;99.90;;;;;;5067799;28;20957;-66
2023/08/04 02:59:46;;;;;;;10.43;6.70;;;15.20;99.90;;;;;;5085813;28;20181;-67
2023/08/04 03:02:12;;;;;;;9.80;7.00;;;15.30;99.90;;;;;;5085891;28;20207;-67
2023/08/04 03:04:39;;;;;;;7.77;6.97;;;15.20;99.90;;;;;;5085933;28;20172;-67
2023/08/04 03:07:05;;;;;;;14.80;7.57;;;15.20;99.90;;;;;;5066938;28;20676;-67
2023/08/04 03:09:31;;;;;;;9.50;7.80;;;15.20;99.90;;;;;;5086080;28;20457;-67
2023/08/04 03:11:56;;;;;;;9.37;6.60;;;15.20;99.90;;;;;;5085145;28;20501;-67
2023/08/04 03:14:22;;;;;;;11.60;7.83;;;15.20;99.90;;;;;;5068100;28;20747;-67
2023/08/04 03:16:49;;;;;;;12.83;7.60;;;15.20;99.90;;;;;;5085321;28;20224;-67
2023/08/04 03:19:17;;;;;;;9.07;7.57;;;15.20;99.90;;;;;;5086035;28;20214;-67
2023/08/04 03:21:43;;;;;;;9.03;6.53;;;15.20;99.90;;;;;;5085622;28;20434;-67
2023/08/04 03:24:09;;;;;;;8.13;6.23;;;15.20;99.90;;;;;;5085113;28;20414;-67
2023/08/04 03:26:34;;;;;;;9.40;6.93;;;15.20;99.90;;;;;;5084523;28;20427;-67
2023/08/04 03:29:00;;;;;;;8.00;6.93;;;15.20;99.90;;;;;;5085085;28;20188;-67
2023/08/04 03:31:26;;;;;;;11.33;7.90;;;15.20;99.90;;;;;;5079758;28;20185;-67
2023/08/04 03:33:51;;;;;;;12.47;8.10;;;15.20;99.90;;;;;;5064799;28;20200;-67
2023/08/04 03:36:17;;;;;;;12.53;7.27;;;15.20;99.90;;;;;;5065597;28;20566;-67
2023/08/04 03:38:43;;;;;;;9.90;7.37;;;15.20;99.90;;;;;;5065550;28;20187;-67
2023/08/04 03:41:08;;;;;;;9.40;7.50;;;15.20;99.90;;;;;;5064992;28;20192;-67
2023/08/04 03:43:34;;;;;;;9.20;8.10;;;15.20;99.90;;;;;;5065486;28;20181;-67
2023/08/04 03:46:00;;;;;;;10.87;7.63;;;15.20;99.90;;;;;;5064293;28;20208;-67
2023/08/04 03:48:25;;;;;;;10.00;7.23;;;15.20;99.90;;;;;;5065280;28;20197;-67
2023/08/04 03:50:51;;;;;;;14.03;7.77;;;15.20;99.90;;;;;;5064364;28;20391;-67
2023/08/04 03:53:17;;;;;;;9.13;7.23;;;15.20;99.90;;;;;;5065183;28;20549;-67
2023/08/04 03:55:42;;;;;;;12.53;7.13;;;15.20;99.90;;;;;;5079750;28;20193;-67
2023/08/04 03:58:08;;;;;;;9.53;7.10;;;15.20;99.90;;;;;;5084745;28;20222;-67
2023/08/04 04:00:34;;;;;;;8.80;6.20;;;15.20;99.90;;;;;;5085129;28;20417;-67
2023/08/04 04:02:59;;;;;;;9.70;7.40;;;15.20;99.90;;;;;;5084261;28;20172;-67
2023/08/04 04:05:25;;;;;;;11.17;7.10;;;15.20;99.90;;;;;;5066524;28;20204;-67
2023/08/04 04:07:51;;;;;;;12.87;6.87;;;15.20;99.90;;;;;;5084209;28;20189;-66
2023/08/04 04:10:17;;;;;;;8.40;6.80;;;15.20;99.90;;;;;;5084664;28;20639;-66
2023/08/04 04:12:42;;;;;;;11.80;7.10;;;15.20;99.90;;;;;;5084476;28;20281;-66
2023/08/04 04:15:08;;;;;;;9.00;7.27;;;15.30;99.90;;;;;;5084958;28;20852;-66
2023/08/04 04:17:35;;;;;;;10.00;6.93;;;15.30;99.90;;;;;;5084631;28;20632;-67
2023/08/04 04:20:01;;;;;;;9.23;7.10;;;15.30;99.90;;;;;;5084805;28;20415;-67
2023/08/04 04:22:27;;;;;;;8.07;7.33;;;15.20;99.90;;;;;;5084655;28;21143;-66
2023/08/04 04:24:52;;;;;;;9.53;6.90;;;15.20;99.90;;;;;;5083792;28;20230;-66
2023/08/04 04:27:18;;;;;;;9.03;7.20;;;15.20;99.90;;;;;;5084417;28;20426;-67
2023/08/04 04:29:44;;;;;;;14.90;8.40;;;15.20;99.90;;;;;;5084140;28;20182;-66
2023/08/04 04:32:09;;;;;;;9.10;7.83;;;15.20;99.90;;;;;;5071993;28;20189;-66
2023/08/04 04:34:35;;;;;;;9.83;8.10;;;15.20;99.90;;;;;;5063898;28;20976;-66
2023/08/04 04:37:01;;;;;;;10.93;8.37;;;15.20;99.90;;;;;;5063018;28;20678;-66
2023/08/04 04:39:26;;;;;;;15.53;8.50;;;15.10;99.90;;;;;;5063944;28;20878;-66
2023/08/04 04:41:52;;;;;;;12.33;8.53;;;15.20;99.90;;;;;;5063217;28;20215;-66
2023/08/04 04:44:18;;;;;;;13.00;7.97;;;15.20;99.90;;;;;;5066316;28;20211;-66
2023/08/04 04:46:43;;;;;;;13.50;8.17;;;15.20;99.90;;;;;;5072572;28;20204;-67
2023/08/04 04:49:09;;;;;;;12.10;8.10;;;15.20;99.90;;;;;;5081741;28;20220;-66
2023/08/04 04:51:35;;;;;;;11.87;8.50;;;15.20;99.90;;;;;;5080755;28;20228;-68
2023/08/04 04:54:01;;;;;;;13.87;8.67;;;15.20;99.90;;;;;;5061646;28;21014;-68
2023/08/04 04:56:26;;;;;;;12.13;8.77;;;15.20;99.90;;;;;;5072797;28;20185;-68
2023/08/04 04:58:52;;;;;;;11.53;8.97;;;15.20;99.90;;;;;;5074177;28;20247;-67
2023/08/04 05:01:18;;;;;;;13.27;8.43;;;15.20;99.90;;;;;;5072665;28;20429;-68
2023/08/04 05:03:43;;;;;;;13.10;9.87;;;15.30;99.90;;;;;;5083284;28;20194;-67
2023/08/04 05:06:09;;;;;;;13.30;9.80;;;15.20;99.90;;;;;;5083833;28;20180;-68
2023/08/04 05:08:35;;;;;;;16.20;9.97;;;15.30;99.90;;;;;;5083879;28;20183;-67
2023/08/04 05:11:00;;;;;;;18.30;10.97;;;15.30;99.90;;;;;;5081580;28;20169;-68
2023/08/04 05:13:26;;;;;;;13.73;9.63;;;15.30;99.90;;;;;;5061414;28;20929;-68
2023/08/04 05:15:52;;;;;;;18.77;11.47;;;15.30;99.90;;;;;;5070724;28;20181;-67
2023/08/04 05:18:18;;;;;;;13.40;9.97;;;15.30;99.90;;;;;;5063322;28;20251;-68
2023/08/04 05:20:45;;;;;;;12.97;11.10;;;15.40;99.90;;;;;;5062566;28;20280;-67
2023/08/04 05:23:11;;;;;;;15.57;11.20;;;15.30;99.90;;;;;;5063373;28;20423;-67
2023/08/04 05:25:37;;;;;;;16.07;11.77;;;15.30;99.90;;;;;;5063122;28;20485;-67
2023/08/04 05:28:23;;;;;;;14.60;10.97;;;15.40;99.90;;;;;;5062926;28;20896;-67
2023/08/04 05:30:53;;;;;;;21.20;12.43;;;15.30;99.90;;;;;;5063222;28;20716;-67
2023/08/04 05:33:19;;;;;;;15.73;12.07;;;15.30;99.90;;;;;;5083415;28;20510;-67
2023/08/04 05:35:46;;;;;;;17.87;12.00;;;15.30;99.90;;;;;;5082419;28;20896;-67
2023/08/04 05:38:13;;;;;;;16.07;12.00;;;15.40;99.90;;;;;;5083456;28;20204;-66
2023/08/04 05:40:40;;;;;;;18.30;12.77;;;15.40;99.90;;;;;;5082986;28;20492;-66
2023/08/04 05:43:06;;;;;;;19.97;13.80;;;15.40;99.90;;;;;;5073606;28;21008;-66
2023/08/04 05:45:40;;;;;;;19.20;14.30;;;15.40;99.90;;;;;;5077470;28;20430;-68
2023/08/04 05:48:06;;;;;;;17.77;13.87;;;15.40;99.90;;;;;;5065819;28;20236;-67
2023/08/04 05:50:31;;;;;;;21.50;15.40;;;15.40;99.90;;;;;;5083389;28;20546;-68
2023/08/04 05:52:58;;;;;;;19.30;15.63;;;15.50;99.90;;;;;;5078711;28;20168;-68
2023/08/04 05:55:24;;;;;;;18.70;16.00;;;15.50;99.90;;;;;;5074164;28;20180;-66
2023/08/04 05:57:50;;;;;;;22.23;14.57;;;15.50;99.90;;;;;;5066787;28;21019;-67
2023/08/04 06:00:16;;;;;;;22.23;14.53;;;15.50;99.90;;;;;;5067105;28;20419;-68
2023/08/04 06:02:44;;;;;;;23.20;15.13;;;15.50;99.90;;;;;;5078721;28;20422;-67
2023/08/04 06:05:10;;;;;;;19.67;15.50;;;15.50;99.90;;;;;;5076385;28;20431;-67
2023/08/04 06:07:36;;;;;;;28.03;15.27;;;15.60;99.90;;;;;;5086429;28;20498;-66
2023/08/04 06:10:02;;;;;;;22.10;15.13;;;15.60;99.90;;;;;;5084603;28;20431;-67
2023/08/04 06:12:28;;;;;;;16.90;13.43;;;15.70;99.90;;;;;;5081858;28;20185;-67
2023/08/04 06:14:54;;;;;;;19.17;14.40;;;15.70;99.90;;;;;;5077407;28;20423;-66
2023/08/04 06:17:19;;;;;;;24.07;17.27;;;15.80;99.90;;;;;;5086862;28;20660;-67
2023/08/04 06:19:45;;;;;;;21.30;15.90;;;15.90;99.90;;;;;;5082607;28;20192;-67
2023/08/04 06:22:13;;;;;;;19.57;14.90;;;15.90;99.90;;;;;;5074197;28;20774;-66
2023/08/04 06:24:39;;;;;;;22.30;15.67;;;16.00;99.90;;;;;;5042869;28;20283;-67
2023/08/04 06:27:05;;;;;;;24.13;16.17;;;16.00;99.90;;;;;;5078972;28;21388;-67
2023/08/04 06:29:31;;;;;;;24.73;16.17;;;16.10;99.90;;;;;;5073054;28;20228;-67
2023/08/04 06:31:57;;;;;;;24.30;16.27;;;16.10;99.90;;;;;;5076381;28;20501;-68
2023/08/04 06:34:22;;;;;;;24.20;16.37;;;16.10;99.90;;;;;;5073517;28;20456;-69
2023/08/04 06:36:48;;;;;;;25.23;16.47;;;16.20;99.90;;;;;;5069700;28;20832;-68
2023/08/04 06:39:14;;;;;;;22.37;16.53;;;16.20;99.90;;;;;;5084871;28;20609;-68
2023/08/04 06:41:41;;;;;;;25.70;17.23;;;16.30;99.90;;;;;;5088457;28;20255;-68
2023/08/04 06:44:07;;;;;;;24.47;17.70;;;16.30;99.90;;;;;;5088654;28;20202;-69
2023/08/04 06:46:32;;;;;;;22.03;17.73;;;16.30;99.90;;;;;;5088695;28;20414;-68
2023/08/04 06:48:58;;;;;;;21.80;17.40;;;16.50;99.90;;;;;;5087921;28;20192;-68
2023/08/04 06:51:24;;;;;;;22.57;18.10;;;16.60;99.90;;;;;;5088927;28;20165;-68
2023/08/04 06:53:49;;;;;;;30.03;19.67;;;16.70;99.90;;;;;;5087973;28;20257;-68
2023/08/04 06:56:15;;;;;;;24.07;17.97;;;16.70;99.90;;;;;;5072775;28;20196;-68
2023/08/04 06:58:41;;;;;;;24.73;17.40;;;16.80;99.90;;;;;;5067830;28;20204;-68
2023/08/04 07:01:07;;;;;;;24.57;18.73;;;16.90;99.90;;;;;;5068194;28;20681;-69
2023/08/04 07:03:33;;;;;;;24.23;17.70;;;17.00;99.90;;;;;;5068023;28;20419;-68
2023/08/04 07:06:00;;;;;;;23.23;17.17;;;17.00;99.90;;;;;;5067559;28;20172;-68
2023/08/04 07:08:27;;;;;;;24.37;18.30;;;17.00;99.90;;;;;;5068064;28;20604;-68
2023/08/04 07:10:52;;;;;;;23.50;16.43;;;17.00;99.90;;;;;;5067301;28;20534;-68
2023/08/04 07:13:18;;;;;;;23.63;16.23;;;16.90;99.90;;;;;;5068209;28;20264;-69
2023/08/04 07:15:57;;;;;;;22.37;17.07;;;16.90;99.90;;;;;;5067272;28;20211;-69
2023/08/04 07:18:23;;;;;;;24.50;18.10;;;16.90;99.90;;;;;;5068107;28;20212;-69
2023/08/04 07:20:49;;;;;;;22.47;16.57;;;16.90;99.90;;;;;;5067857;28;21039;-70
2023/08/04 07:23:15;;;;;;;19.40;15.23;;;16.90;99.90;;;;;;5069687;28;20411;-70
2023/08/04 07:25:40;;;;;;;18.60;15.27;;;17.00;99.90;;;;;;5068442;28;20196;-70
2023/08/04 07:28:06;;;;;;;20.13;15.17;;;16.90;99.90;;;;;;5069549;28;20535;-69
2023/08/04 07:30:37;;;;;;;25.20;15.80;;;17.00;99.90;;;;;;5084043;28;20185;-69
2023/08/04 07:33:05;;;;;;;17.73;14.70;;;17.00;99.90;;;;;;5088217;28;20338;-69
2023/08/04 07:35:31;;;;;;;18.97;15.00;;;17.00;99.90;;;;;;5087736;28;20427;-69
2023/08/04 07:37:57;;;;;;;14.47;12.53;;;17.10;99.90;;;;;;5087656;28;20477;-69
2023/08/04 07:40:22;;;;;;;17.07;14.07;;;17.20;99.90;;;;;;5088327;28;20245;-69
2023/08/04 07:42:48;;;;;;;17.77;14.80;;;17.20;99.90;;;;;;5086923;28;20654;-69
2023/08/04 07:45:14;;;;;;;18.30;12.93;;;17.20;99.90;;;;;;5087521;28;20207;-69
2023/08/04 07:47:39;;;;;;;18.20;12.10;;;17.30;99.90;;;;;;5086760;28;20283;-69
2023/08/04 07:50:07;;;;;;;17.33;13.87;;;17.30;99.90;;;;;;5087739;28;20197;-69
2023/08/04 07:52:32;;;;;;;16.20;12.97;;;17.40;99.90;;;;;;5087224;28;20172;-69
2023/08/04 07:54:58;;;;;;;23.43;14.57;;;17.30;99.90;;;;;;5087312;28;20431;-69
2023/08/04 07:57:24;;;;;;;15.50;12.53;;;17.40;99.90;;;;;;5087723;28;20212;-69
2023/08/04 07:59:50;;;;;;;18.37;13.47;;;17.40;99.90;;;;;;5087045;28;20173;-68
2023/08/04 08:02:16;;;;;;;13.97;11.90;;;17.40;99.90;;;;;;5067692;28;20279;-68
2023/08/04 08:04:42;;;;;;;21.47;13.67;;;17.30;99.90;;;;;;5065636;28;20518;-68
2023/08/04 08:07:08;;;;;;;16.57;12.03;;;17.40;99.90;;;;;;5066248;28;20184;-68
2023/08/04 08:09:33;;;;;;;15.83;12.37;;;17.40;99.90;;;;;;5066262;28;20260;-68
2023/08/04 08:11:59;;;;;;;17.90;13.23;;;17.40;99.90;;;;;;5066473;28;20510;-68
2023/08/04 08:14:25;;;;;;;19.40;13.17;;;17.40;99.90;;;;;;5066460;28;20232;-68
2023/08/04 08:16:51;;;;;;;21.30;14.87;;;17.40;99.90;;;;;;5048407;28;20227;-68
2023/08/04 08:19:16;;;;;;;21.17;14.13;;;17.50;99.90;;;;;;5067169;28;20424;-68
2023/08/04 08:21:42;;;;;;;16.23;13.00;;;17.50;99.90;;;;;;5066393;28;20587;-68
2023/08/04 08:24:09;;;;;;;15.43;11.60;;;17.50;99.90;;;;;;5066750;28;20185;-68
2023/08/04 08:26:34;;;;;;;17.63;11.20;;;17.50;99.90;;;;;;5047970;28;20506;-68
2023/08/04 08:29:02;;;;;;;16.03;10.90;;;17.60;99.90;;;;;;5070561;28;20493;-68
2023/08/04 08:31:27;;;;;;;13.93;10.20;;;17.60;99.90;;;;;;5086352;28;20172;-68
2023/08/04 08:33:53;;;;;;;14.77;8.50;;;17.70;99.90;;;;;;5086245;28;20987;-68
2023/08/04 08:36:19;;;;;;;9.43;7.20;;;17.80;99.90;;;;;;5086741;28;20189;-68
2023/08/04 08:38:45;;;;;;;10.27;6.60;;;18.00;99.90;;;;;;5086163;28;20238;-68
2023/08/04 08:41:13;;;;;;;8.63;6.80;;;18.00;99.90;;;;;;5086905;28;20430;-68
2023/08/04 08:43:40;;;;;;;11.53;7.20;;;18.10;99.90;;;;;;5084829;28;21047;-68
2023/08/04 08:46:06;;;;;;;10.97;6.83;;;18.20;99.90;;;;;;5085241;28;20440;-68
2023/08/04 08:48:36;;;;;;;10.03;7.03;;;18.30;99.90;;;;;;5084819;28;20426;-68
2023/08/04 08:51:18;;;;;;;8.40;6.97;;;18.30;99.90;;;;;;5086268;28;20461;-68
2023/08/04 08:53:47;;;;;;;15.77;6.60;;;18.40;99.90;;;;;;5085677;28;20411;-68
2023/08/04 08:56:15;;;;;;;10.70;7.50;;;18.50;99.90;;;;;;5087785;28;20476;-68
2023/08/04 08:58:41;;;;;;;9.90;6.87;;;18.50;99.90;;;;;;5086884;28;20490;-68
2023/08/04 09:01:07;;;;;;;10.37;6.20;;;18.50;99.90;;;;;;5087894;28;20418;-68
2023/08/04 09:03:38;;;;;;;8.57;5.93;;;18.60;99.90;;;;;;5085640;28;20438;-68
2023/08/04 09:06:04;;;;;;;7.70;5.50;;;18.50;99.90;;;;;;5086666;28;20422;-68
2023/08/04 09:08:31;;;;;;;7.67;5.30;;;18.60;99.90;;;;;;5085483;28;20427;-68
2023/08/04 09:11:00;;;;;;;10.30;5.60;;;18.60;99.90;;;;;;5086045;28;20427;-68
2023/08/04 09:13:26;;;;;;;7.40;6.07;;;18.60;99.90;;;;;;5085787;28;20423;-68
2023/08/04 09:15:54;;;;;;;6.60;5.37;;;18.60;99.90;;;;;;5067686;28;20837;-69
2023/08/04 09:18:38;;;;;;;8.73;6.13;;;18.70;99.90;;;;;;5086299;28;20477;-69
2023/08/04 09:21:07;;;;;;;6.40;4.80;;;18.70;99.90;;;;;;5086306;28;20525;-69
2023/08/04 09:23:36;;;;;;;7.20;6.00;;;18.80;99.90;;;;;;5084564;28;20421;-69
2023/08/04 09:26:02;;;;;;;7.87;5.50;;;18.80;99.90;;;;;;5067947;28;20457;-69
2023/08/04 09:28:28;;;;;;;9.23;5.27;;;18.90;99.90;;;;;;5085400;28;20418;-69
2023/08/04 09:31:04;;;;;;;7.43;6.10;;;18.80;99.90;;;;;;5047840;28;20434;-69
2023/08/04 09:33:31;;;;;;;6.43;5.80;;;18.80;99.90;;;;;;5065002;28;20427;-69
2023/08/04 09:36:07;;;;;;;6.40;5.60;;;18.90;99.90;;;;;;5065467;28;20415;-69
2023/08/04 09:38:34;;;;;;;7.33;5.80;;;19.00;99.90;;;;;;5063383;28;20968;-69
2023/08/04 09:41:07;;;;;;;6.07;5.47;;;19.00;99.90;;;;;;5063035;28;20419;-69
2023/08/04 09:43:33;;;;;;;6.23;5.20;;;19.00;99.90;;;;;;5062464;28;20518;-69
2023/08/04 09:46:06;;;;;;;6.30;3.87;;;19.00;99.90;;;;;;5063198;28;20419;-69
2023/08/04 09:48:32;;;;;;;5.70;4.00;;;19.10;99.90;;;;;;5062316;28;20929;-69
2023/08/04 09:51:09;;;;;;;3.50;3.20;;;19.10;99.90;;;;;;5063079;28;20423;-69
2023/08/04 09:53:43;;;;;;;4.87;3.23;;;19.10;99.90;;;;;;5062318;28;20428;-69
2023/08/04 09:56:10;;;;;;;6.00;3.13;;;19.10;99.90;;;;;;5062981;28;20770;-69
2023/08/04 09:58:37;;;;;;;3.80;3.40;;;19.10;99.90;;;;;;5063171;28;20471;-69
2023/08/04 10:01:03;;;;;;;4.77;3.00;;;19.10;99.90;;;;;;5076742;28;20793;-69
2023/08/04 10:03:29;;;;;;;5.13;3.17;;;19.10;99.90;;;;;;5082332;28;20507;-69
2023/08/04 10:05:59;;;;;;;4.17;3.23;;;19.20;99.90;;;;;;5070491;28;21012;-69
2023/08/04 10:08:32;;;;;;;3.77;3.40;;;19.30;99.90;;;;;;5071246;28;20197;-69
2023/08/04 10:10:58;;;;;;;6.30;3.10;;;19.40;99.90;;;;;;5058042;28;20426;-69
2023/08/04 10:13:31;;;;;;;11.67;3.87;;;19.60;99.90;;;;;;5077121;28;20788;-69
2023/08/04 10:15:58;;;;;;;3.50;3.20;;;19.80;99.90;;;;;;5065154;28;20420;-69
2023/08/04 10:18:25;;;;;;;4.80;2.80;;;19.90;99.90;;;;;;5064918;28;20474;-69
2023/08/04 10:20:52;;;;;;;3.00;2.70;;;20.10;99.90;;;;;;5062694;28;20936;-69
2023/08/04 10:23:18;;;;;;;6.20;3.53;;;20.30;99.90;;;;;;5062978;28;21009;-69
2023/08/04 10:26:01;;;;;;;4.57;2.70;;;20.30;99.90;;;;;;5062785;28;20428;-69
2023/08/04 10:28:30;;;;;;;3.27;2.73;;;20.40;99.90;;;;;;5065032;28;20890;-69
2023/08/04 10:31:11;;;;;;;4.83;3.33;;;20.60;99.90;;;;;;5064073;28;20423;-69
2023/08/04 10:33:37;;;;;;;3.23;2.93;;;20.80;99.90;;;;;;5058793;28;20439;-69
2023/08/04 10:36:08;;;;;;;3.60;2.90;;;21.00;99.90;;;;;;5067102;28;20460;-69
2023/08/04 10:38:45;;;;;;;3.07;2.57;;;21.00;99.90;;;;;;5082799;28;20235;-69
2023/08/04 10:41:10;;;;;;;3.37;2.90;;;21.10;99.90;;;;;;5080299;28;20499;-69
2023/08/04 10:43:39;;;;;;;2.70;2.40;;;21.10;99.90;;;;;;5085366;28;20916;-69
2023/08/04 10:46:10;;;;;;;3.47;2.67;;;21.20;99.90;;;;;;5086177;28;20180;-69
2023/08/04 10:48:40;;;;;;;3.80;2.23;;;21.10;99.90;;;;;;5085446;28;20528;-69
2023/08/04 10:51:10;;;;;;;2.27;2.07;;;21.10;99.90;;;;;;5085754;28;20448;-69
2023/08/04 10:53:36;;;;;;;3.10;2.80;;;21.00;99.90;;;;;;5083376;28;20446;-69
2023/08/04 10:56:06;;;;;;;3.00;2.37;;;21.00;99.90;;;;;;5083842;28;20457;-69
2023/08/04 10:58:32;;;;;;;2.63;2.43;;;20.80;99.90;;;;;;5084947;28;20511;-69
2023/08/04 11:00:58;;;;;;;2.57;2.10;;;20.80;99.90;;;;;;5081639;28;20522;-69
2023/08/04 11:03:33;;;;;;;3.90;2.30;;;20.70;99.90;;;;;;5084857;28;20283;-69
2023/08/04 11:05:59;;;;;;;3.93;2.67;;;20.60;99.90;;;;;;5085300;28;20168;-69
2023/08/04 11:08:25;;;;;;;2.60;2.30;;;20.50;99.90;;;;;;5077879;28;20423;-69
2023/08/04 11:10:55;;;;;;;2.93;2.10;;;20.40;99.90;;;;;;5087652;28;20775;-69
2023/08/04 11:13:23;;;;;;;3.73;2.10;;;20.40;99.90;;;;;;5084682;28;20411;-69
2023/08/04 11:15:49;;;;;;;2.50;2.03;;;20.40;99.90;;;;;;5085103;28;20423;-69
2023/08/04 11:18:26;;;;;;;4.13;1.90;;;20.30;99.90;;;;;;5085154;28;20459;-69
2023/08/04 11:20:52;;;;;;;3.63;1.90;;;20.30;99.90;;;;;;5085238;28;20434;-69
2023/08/04 11:23:26;;;;;;;2.83;2.20;;;20.40;99.90;;;;;;5082647;28;20452;-69
2023/08/04 11:25:52;;;;;;;3.13;2.03;;;20.50;99.90;;;;;;5078962;28;20477;-69
2023/08/04 11:28:19;;;;;;;2.40;2.20;;;20.50;99.90;;;;;;5080154;28;20526;-69
2023/08/04 11:30:45;;;;;;;2.67;1.70;;;20.60;99.90;;;;;;5076418;28;20532;-69
2023/08/04 11:33:11;;;;;;;2.20;1.97;;;20.70;99.90;;;;;;5084820;28;20430;-69
2023/08/04 11:35:37;;;;;;;2.53;2.07;;;20.70;99.90;;;;;;5084247;28;20628;-69
2023/08/04 11:38:05;;;;;;;3.27;2.10;;;20.70;99.90;;;;;;5075489;28;20216;-69
2023/08/04 11:40:33;;;;;;;2.67;2.47;;;20.80;99.90;;;;;;5084042;28;20188;-69
2023/08/04 11:43:00;;;;;;;2.90;2.70;;;21.00;99.90;;;;;;5071378;28;20476;-69
2023/08/04 11:45:30;;;;;;;3.33;3.03;;;21.00;99.90;;;;;;5083246;28;20467;-69
2023/08/04 11:47:56;;;;;;;3.90;3.50;;;21.10;99.90;;;;;;5084239;28;21112;-69
2023/08/04 11:50:23;;;;;;;3.90;3.67;;;21.10;99.90;;;;;;5083859;28;21110;-69
2023/08/04 11:52:49;;;;;;;4.17;3.77;;;21.30;99.90;;;;;;5084622;28;21211;-69
2023/08/04 11:55:15;;;;;;;6.03;3.40;;;21.50;99.90;;;;;;5084204;28;20423;-69
2023/08/04 11:57:52;;;;;;;3.57;3.00;;;21.60;99.90;;;;;;5083890;28;20246;-69
2023/08/04 12:00:32;;;;;;;3.07;2.20;;;21.60;99.90;;;;;;5083887;28;20188;-69
2023/08/04 12:02:59;;;;;;;3.13;2.83;;;21.40;99.90;;;;;;5085637;28;20436;-70
2023/08/04 12:05:32;;;;;;;2.27;1.90;;;21.40;99.90;;;;;;5084137;28;20466;-69
2023/08/04 12:08:11;;;;;;;4.37;2.00;;;21.30;99.90;;;;;;5085626;28;20819;-69
2023/08/04 12:10:37;;;;;;;1.63;1.53;;;21.20;99.90;;;;;;5084133;28;20422;-69
2023/08/04 12:13:03;;;;;;;2.43;1.87;;;21.20;99.90;;;;;;5084182;28;20426;-69
2023/08/04 12:15:29;;;;;;;2.40;1.47;;;21.20;99.90;;;;;;5082863;28;20180;-69
2023/08/04 12:17:55;;;;;;;5.47;1.83;;;21.40;99.90;;;;;;5084108;28;20887;-68
2023/08/04 12:20:21;;;;;;;2.90;1.90;;;21.50;99.90;;;;;;5083283;28;20674;-68
2023/08/04 12:22:46;;;;;;;2.53;1.83;;;21.70;99.90;;;;;;5083967;28;20184;-68
2023/08/04 12:25:13;;;;;;;4.97;1.80;;;21.90;99.90;;;;;;5083668;28;20184;-69
2023/08/04 12:27:40;;;;;;;1.80;1.57;;;22.00;99.90;;;;;;5083507;28;20847;-69
2023/08/04 12:30:06;;;;;;;2.20;1.70;;;22.10;99.90;;;;;;5074559;28;20823;-69
2023/08/04 12:32:32;;;;;;;2.63;1.70;;;22.00;99.90;;;;;;5083147;28;20576;-68
2023/08/04 12:34:58;;;;;;;2.27;1.83;;;22.00;99.90;;;;;;5083955;28;20534;-69
2023/08/04 12:37:25;;;;;;;2.10;1.90;;;22.00;99.90;;;;;;5082942;28;20205;-69
2023/08/04 12:39:51;;;;;;;2.70;1.77;;;22.00;99.90;;;;;;5068697;28;20185;-68